createdAt,value
2018-05-29T00:04:48.075Z,23.70
2018-05-29T00:09:51.349Z,23.70
2018-05-29T00:14:54.607Z,23.60
2018-05-29T00:19:57.955Z,23.50
2018-05-29T00:25:01.211Z,23.60
2018-05-29T00:30:04.470Z,23.70
2018-05-29T00:35:07.727Z,23.60
2018-05-29T00:40:11.009Z,23.40
2018-05-29T00:45:15.019Z,23.20
2018-05-29T00:50:18.279Z,23.10
2018-05-29T00:55:33.160Z,23.30
2018-05-29T01:00:36.427Z,23.40
2018-05-29T01:05:40.464Z,22.90
2018-05-29T01:10:43.728Z,22.80
2018-05-29T01:15:46.991Z,22.80
2018-05-29T01:20:50.258Z,22.80
2018-05-29T01:25:53.519Z,22.80
2018-05-29T01:30:56.795Z,22.60
2018-05-29T01:36:00.059Z,22.60
2018-05-29T01:41:03.318Z,22.60
2018-05-29T01:46:07.350Z,22.60
2018-05-29T01:51:10.610Z,22.50
2018-05-29T01:56:13.872Z,22.60
2018-05-29T02:01:17.891Z,22.50
2018-05-29T02:06:21.174Z,22.40
2018-05-29T02:11:24.478Z,22.00
2018-05-29T02:16:27.734Z,22.10
2018-05-29T02:21:30.998Z,22.10
2018-05-29T02:26:34.258Z,21.90
2018-05-29T02:31:37.524Z,22.10
2018-05-29T02:36:40.787Z,22.20
2018-05-29T02:41:44.068Z,22.10
2018-05-29T02:46:48.074Z,22.30
2018-05-29T02:51:52.111Z,22.00
2018-05-29T02:56:55.376Z,21.90
2018-05-29T03:01:58.655Z,21.80
2018-05-29T03:07:01.924Z,21.60
2018-05-29T03:12:05.212Z,21.80
2018-05-29T03:17:08.478Z,21.80
2018-05-29T03:22:11.763Z,21.70
2018-05-29T03:27:15.791Z,21.40
2018-05-29T03:32:19.051Z,21.30
2018-05-29T03:37:22.323Z,21.40
2018-05-29T03:42:25.606Z,21.40
2018-05-29T03:47:29.634Z,21.50
2018-05-29T03:52:32.915Z,21.50
2018-05-29T03:57:36.177Z,21.50
2018-05-29T04:02:39.447Z,21.70
2018-05-29T04:07:43.485Z,21.60
2018-05-29T04:12:46.766Z,21.60
2018-05-29T04:17:50.030Z,21.70
2018-05-29T04:22:53.299Z,21.90
2018-05-29T04:27:58.155Z,22.30
2018-05-29T04:33:01.433Z,22.20
2018-05-29T04:38:04.681Z,22.50
2018-05-29T04:43:08.038Z,22.30
2018-05-29T04:48:11.319Z,22.80
2018-05-29T04:53:14.588Z,23.00
2018-05-29T04:58:18.615Z,23.20
2018-05-29T05:03:22.767Z,23.20
2018-05-29T05:08:26.052Z,23.40
2018-05-29T05:13:29.327Z,23.70
2018-05-29T05:18:32.618Z,24.00
2018-05-29T05:23:35.916Z,23.90
2018-05-29T05:28:39.172Z,24.00
2018-05-29T05:33:42.436Z,24.00
2018-05-29T05:38:45.716Z,24.40
2018-05-29T05:43:49.067Z,25.00
2018-05-29T05:48:52.343Z,25.20
2018-05-29T05:53:55.631Z,25.40
2018-05-29T05:58:58.899Z,25.80
2018-05-29T06:04:02.160Z,25.70
2018-05-29T06:09:05.443Z,25.80
2018-05-29T06:14:08.739Z,26.50
2018-05-29T06:19:13.023Z,27.60
2018-05-29T06:24:16.322Z,27.50
2018-05-29T06:29:19.550Z,27.50
2018-05-29T06:34:23.592Z,27.40
2018-05-29T06:39:26.859Z,27.90
2018-05-29T06:44:30.163Z,28.10
2018-05-29T06:49:33.436Z,28.30
2018-05-29T06:54:36.715Z,28.90
2018-05-29T06:59:39.982Z,29.00
2018-05-29T07:04:44.603Z,31.60
2018-05-29T07:09:48.791Z,31.50
2018-05-29T07:14:52.051Z,31.30
2018-05-29T07:19:55.359Z,31.20
2018-05-29T07:24:59.571Z,31.70
2018-05-29T07:30:02.827Z,32.20
2018-05-29T07:35:06.099Z,31.50
2018-05-29T07:40:09.351Z,32.00
2018-05-29T07:45:12.680Z,33.50
2018-05-29T07:50:15.925Z,34.40
2018-05-29T07:55:19.203Z,35.50
2018-05-29T08:00:22.470Z,36.00
2018-05-29T08:05:25.727Z,36.00
2018-05-29T08:10:28.989Z,36.10
2018-05-29T08:15:32.298Z,36.20
2018-05-29T08:20:35.580Z,36.60
2018-05-29T08:25:38.855Z,36.80
2018-05-29T08:30:42.123Z,36.60
2018-05-29T08:35:45.389Z,36.40
2018-05-29T08:40:48.652Z,36.20
2018-05-29T08:45:53.146Z,36.50
2018-05-29T08:50:56.416Z,37.70
2018-05-29T08:55:59.681Z,38.20
2018-05-29T09:01:02.935Z,38.00
2018-05-29T09:06:07.099Z,38.60
2018-05-29T09:11:10.357Z,39.70
2018-05-29T09:16:13.621Z,39.70
2018-05-29T09:21:16.872Z,38.80
2018-05-29T09:26:20.143Z,38.20
2018-05-29T09:31:23.432Z,37.90
2018-05-29T09:36:26.684Z,38.40
2018-05-29T09:41:29.978Z,39.90
2018-05-29T09:46:33.210Z,40.40
2018-05-29T09:51:36.463Z,40.10
2018-05-29T09:56:40.671Z,40.10
2018-05-29T10:01:43.910Z,41.30
2018-05-29T10:06:47.158Z,41.70
2018-05-29T10:11:50.421Z,41.50
2018-05-29T10:16:53.678Z,38.60
2018-05-29T10:21:56.951Z,37.00
2018-05-29T10:27:00.213Z,37.50
2018-05-29T10:32:03.482Z,39.60
2018-05-29T10:37:07.538Z,41.30
2018-05-29T10:42:10.795Z,41.30
2018-05-29T10:47:14.055Z,42.00
2018-05-29T10:52:18.216Z,39.30
2018-05-29T10:57:21.463Z,41.40
2018-05-29T11:02:24.714Z,39.60
2018-05-29T11:07:28.020Z,39.30
2018-05-29T11:12:31.326Z,41.20
2018-05-29T11:17:34.527Z,42.10
2018-05-29T11:22:37.775Z,42.50
2018-05-29T11:27:41.032Z,42.30
2018-05-29T11:32:44.282Z,40.40
2018-05-29T11:37:47.522Z,42.00
2018-05-29T11:42:51.539Z,41.90
2018-05-29T11:47:54.844Z,41.90
2018-05-29T11:52:58.863Z,40.50
2018-05-29T11:58:02.116Z,40.60
2018-05-29T12:03:05.379Z,40.90
2018-05-29T12:08:09.412Z,43.20
2018-05-29T12:13:12.658Z,43.10
2018-05-29T12:18:15.911Z,41.60
2018-05-29T12:23:19.160Z,39.80
2018-05-29T12:28:22.413Z,39.40
2018-05-29T12:33:25.662Z,38.30
2018-05-29T12:38:28.919Z,38.70
2018-05-29T12:43:33.071Z,39.10
2018-05-29T12:48:36.444Z,39.50
2018-05-29T12:53:39.698Z,40.70
2018-05-29T12:58:42.955Z,38.60
2018-05-29T13:03:46.230Z,40.10
2018-05-29T13:08:49.463Z,41.50
2018-05-29T13:13:52.724Z,39.30
2018-05-29T13:18:55.971Z,37.00
2018-05-29T13:23:59.242Z,36.80
2018-05-29T13:29:02.495Z,37.60
2018-05-29T13:34:05.771Z,37.30
2018-05-29T13:39:09.096Z,36.80
2018-05-29T13:44:12.336Z,36.30
2018-05-29T13:49:15.685Z,35.70
2018-05-29T13:54:18.884Z,35.00
2018-05-29T13:59:22.148Z,34.00
2018-05-29T14:04:25.415Z,32.40
2018-05-29T14:09:28.666Z,29.70
2018-05-29T14:14:31.948Z,22.00
2018-05-29T14:19:35.972Z,21.20
2018-05-29T14:24:39.996Z,20.30
2018-05-29T14:29:44.015Z,20.00
2018-05-29T14:34:47.291Z,19.90
2018-05-29T14:39:50.544Z,20.00
2018-05-29T14:44:53.807Z,21.20
2018-05-29T14:49:57.191Z,21.10
2018-05-29T14:55:00.454Z,19.90
2018-05-29T15:00:03.735Z,20.10
2018-05-29T15:05:07.011Z,20.40
2018-05-29T15:10:10.267Z,21.30
2018-05-29T15:15:13.606Z,19.80
2018-05-29T15:20:16.871Z,19.50
2018-05-29T15:25:20.156Z,19.40
2018-05-29T15:30:23.417Z,20.60
2018-05-29T15:35:27.452Z,19.30
2018-05-29T15:40:30.711Z,19.20
2018-05-29T15:45:33.966Z,19.20
2018-05-29T15:50:37.474Z,19.40
2018-05-29T15:55:40.747Z,19.90
2018-05-29T16:00:44.010Z,19.30
2018-05-29T16:05:47.303Z,18.80
2018-05-29T16:10:50.835Z,18.70
2018-05-29T16:15:54.103Z,19.60
2018-05-29T16:20:57.394Z,20.70
2018-05-29T16:26:00.652Z,20.40
2018-05-29T16:31:03.923Z,19.50
2018-05-29T16:36:07.204Z,19.50
2018-05-29T16:41:10.483Z,19.30
2018-05-29T16:46:13.756Z,21.20
2018-05-29T16:51:17.047Z,21.80
2018-05-29T16:56:20.312Z,20.90
2018-05-29T17:01:23.609Z,22.10
2018-05-29T17:06:26.856Z,22.70
2018-05-29T17:11:30.147Z,22.10
2018-05-29T17:16:33.415Z,22.00
2018-05-29T17:21:36.724Z,20.60
2018-05-29T17:26:40.019Z,19.40
2018-05-29T17:31:43.301Z,19.10
2018-05-29T17:36:46.570Z,19.30
2018-05-29T17:41:50.620Z,19.60
2018-05-29T17:46:53.900Z,19.50
2018-05-29T17:51:57.178Z,19.50
2018-05-29T17:57:01.216Z,19.50
2018-05-29T18:02:05.262Z,21.80
2018-05-29T18:07:08.510Z,21.70
2018-05-29T18:12:11.770Z,21.90
2018-05-29T18:17:15.812Z,20.40
2018-05-29T18:22:19.096Z,20.30
2018-05-29T18:27:23.113Z,20.30
2018-05-29T18:32:26.395Z,21.10
2018-05-29T18:37:29.675Z,21.00
2018-05-29T18:42:32.959Z,20.60
2018-05-29T18:47:37.007Z,20.30
2018-05-29T18:52:40.347Z,20.50
2018-05-29T18:57:43.602Z,20.20
2018-05-29T19:02:47.627Z,20.70
2018-05-29T19:07:51.655Z,20.30
2018-05-29T19:12:55.689Z,20.80
2018-05-29T19:17:58.975Z,20.80
2018-05-29T19:23:03.096Z,20.50
2018-05-29T19:28:06.335Z,20.50
2018-05-29T19:33:09.611Z,20.20
2018-05-29T19:38:12.891Z,20.10
2018-05-29T19:43:16.152Z,20.10
2018-05-29T19:48:19.423Z,20.10
2018-05-29T19:53:22.766Z,20.20
2018-05-29T19:58:26.800Z,20.10
2018-05-29T20:03:30.845Z,19.90
2018-05-29T20:08:34.102Z,19.80
2018-05-29T20:13:37.422Z,19.90
2018-05-29T20:18:40.691Z,19.80
2018-05-29T20:23:43.959Z,19.90
2018-05-29T20:28:47.231Z,19.90
2018-05-29T20:33:50.504Z,19.90
2018-05-29T20:38:53.766Z,19.90
2018-05-29T20:43:57.917Z,19.90
2018-05-29T20:49:01.195Z,20.30
2018-05-29T20:54:05.279Z,20.90
2018-05-29T20:59:08.542Z,21.00
2018-05-29T21:04:11.892Z,21.40
2018-05-29T21:09:15.160Z,21.30
2018-05-29T21:14:18.468Z,20.30
2018-05-29T21:19:21.739Z,19.80
2018-05-29T21:24:25.091Z,19.60
2018-05-29T21:29:29.127Z,19.50
2018-05-29T21:34:32.435Z,19.40
2018-05-29T21:39:36.449Z,19.60
2018-05-29T21:44:40.473Z,19.40
2018-05-29T21:49:44.595Z,19.30
2018-05-29T21:54:47.948Z,20.40
2018-05-29T21:59:51.346Z,20.10
2018-05-29T22:04:54.669Z,19.90
2018-05-29T22:09:57.943Z,19.40
2018-05-29T22:15:01.981Z,19.10
2018-05-29T22:20:05.239Z,19.10
2018-05-29T22:25:08.499Z,19.20
2018-05-29T22:30:12.520Z,20.20
2018-05-29T22:35:16.531Z,20.20
2018-05-29T22:40:20.563Z,19.60
2018-05-29T22:45:23.820Z,19.60
2018-05-29T22:50:27.104Z,20.20
2018-05-29T22:55:30.455Z,20.90
2018-05-29T23:00:33.702Z,20.60
2018-05-29T23:05:37.732Z,20.30
2018-05-29T23:10:40.992Z,20.30
2018-05-29T23:15:44.246Z,20.10
2018-05-29T23:20:48.352Z,19.30
2018-05-29T23:25:51.665Z,19.30
2018-05-29T23:30:54.920Z,19.40
2018-05-29T23:35:58.172Z,19.80
2018-05-29T23:41:01.428Z,19.60
2018-05-29T23:46:04.699Z,19.10
2018-05-29T23:51:07.964Z,19.00
2018-05-29T23:56:11.227Z,18.80
